Time;durP1;ratioP1;P1;durP2;ratioP2;P2;SDS_P1;SDS_P2;PMS_P1;PMS_P2;Temp;Humidity;BMP_temperature;BMP_pressure;BME280_temperature;BME280_humidity;BME280_pressure;Samples;Min_cycle;Max_cycle;Signal;HPM_P1;HPM_P2
2023/08/15 00:00:15;;;;;;;;;2.00;2.00;;;;;24.90;100.00;101053.81;5077256;28;67532;-73
2023/08/15 00:02:40;;;;;;;;;4.00;2.33;;;;;24.87;100.00;101051.22;5077560;27;45560;-72
2023/08/15 00:05:06;;;;;;;;;3.00;3.00;;;;;24.82;100.00;101045.16;5084275;27;62777;-72
2023/08/15 00:07:31;;;;;;;;;6.00;3.33;;;;;24.79;100.00;101048.00;5080175;27;47265;-72
2023/08/15 00:09:56;;;;;;;;;3.00;3.00;;;;;24.75;100.00;101058.06;5083558;27;53612;-73
2023/08/15 00:12:22;;;;;;;;;4.00;4.00;;;;;24.76;100.00;101056.22;5074148;28;61676;-74
2023/08/15 00:14:47;;;;;;;;;4.00;2.33;;;;;24.78;100.00;101046.25;5077950;27;45453;-72
2023/08/15 00:17:12;;;;;;;;;1.67;1.67;;;;;24.75;100.00;101049.09;5076716;28;69297;-72
2023/08/15 00:19:38;;;;;;;;;2.67;2.00;;;;;24.79;100.00;101053.41;5077376;27;45486;-72
2023/08/15 00:22:03;;;;;;;;;2.00;2.00;;;;;24.74;100.00;101045.50;5078570;27;63599;-72
2023/08/15 00:24:28;;;;;;;;;3.67;2.00;;;;;24.69;100.00;101049.34;5079195;27;46812;-72
2023/08/15 00:26:54;;;;;;;;;3.67;2.67;;;;;24.68;100.00;101039.50;5083726;27;62197;-72
2023/08/15 00:29:19;;;;;;;;;2.00;2.00;;;;;24.61;100.00;101038.91;5086822;27;51183;-73
2023/08/15 00:31:44;;;;;;;;;4.33;3.00;;;;;24.58;100.00;101054.34;5075823;28;63941;-72
2023/08/15 00:34:10;;;;;;;;;3.33;2.00;;;;;24.53;100.00;101052.72;5077168;27;59417;-72
2023/08/15 00:36:35;;;;;;;;;6.00;3.00;;;;;24.48;100.00;101043.94;5080460;27;45771;-71
2023/08/15 00:39:02;;;;;;;;;5.00;3.00;;;;;24.43;100.00;101043.28;5081248;27;66216;-72
2023/08/15 00:41:29;;;;;;;;;4.00;2.00;;;;;24.37;100.00;101051.63;5074272;28;45526;-72
2023/08/15 00:43:54;;;;;;;;;1.67;1.67;;;;;24.38;100.00;101055.22;5076571;28;45556;-72
2023/08/15 00:46:19;;;;;;;;;2.00;2.00;;;;;24.33;100.00;101049.97;5076130;28;70952;-73
2023/08/15 00:48:45;;;;;;;;;2.33;2.33;;;;;24.29;100.00;101051.06;5076092;28;49862;-74
2023/08/15 00:51:10;;;;;;;;;1.00;1.00;;;;;24.27;100.00;101055.63;5076681;28;63979;-72
2023/08/15 00:53:36;;;;;;;;;2.00;2.00;;;;;24.27;100.00;101053.81;5075966;28;62653;-72
2023/08/15 00:56:01;;;;;;;;;2.00;2.00;;;;;24.27;100.00;101055.63;5076374;27;60219;-72
2023/08/15 00:58:29;;;;;;;;;4.67;2.00;;;;;24.25;100.00;101057.53;5077138;28;45240;-74
2023/08/15 01:00:55;;;;;;;;;2.00;2.00;;;;;24.18;100.00;101048.81;5076746;27;45493;-72
2023/08/15 01:03:20;;;;;;;;;2.00;2.00;;;;;24.19;100.00;101057.78;5058562;28;60641;-72
2023/08/15 01:05:47;;;;;;;;;2.67;2.67;;;;;24.13;100.00;101045.44;5076310;28;46592;-72
2023/08/15 01:08:12;;;;;;;;;4.33;4.33;;;;;24.10;100.00;101048.25;5057911;28;45387;-72
2023/08/15 01:10:42;;;;;;;;;1.33;1.33;;;;;24.09;100.00;101051.91;5059025;28;45393;-72
2023/08/15 01:13:19;;;;;;;;;5.00;2.00;;;;;24.08;100.00;101050.16;5076347;28;45477;-71
2023/08/15 01:15:51;;;;;;;;;4.00;3.00;;;;;24.05;100.00;101052.97;5075864;28;45687;-72
2023/08/15 01:18:38;;;;;;;;;2.00;2.00;;;;;24.01;100.00;101059.41;5077796;27;46035;-72
2023/08/15 01:21:03;;;;;;;;;2.00;2.00;;;;;24.01;100.00;101062.13;5041418;28;45514;-71
2023/08/15 01:23:43;;;;;;;;;2.00;2.00;;;;;23.98;100.00;101068.53;5058057;28;45500;-71
2023/08/15 01:26:08;;;;;;;;;3.67;3.00;;;;;23.99;100.00;101064.00;5056862;27;46412;-72
2023/08/15 01:28:34;;;;;;;;;2.67;2.00;;;;;23.99;100.00;101069.41;5075648;27;45456;-72
2023/08/15 01:31:08;;;;;;;;;4.00;2.00;;;;;24.02;100.00;101071.94;5070743;27;45858;-73
2023/08/15 01:33:40;;;;;;;;;3.67;2.67;;;;;24.05;100.00;101077.25;5074301;27;45518;-72
2023/08/15 01:36:12;;;;;;;;;5.00;3.33;;;;;24.11;100.00;101074.28;5057273;28;47121;-72
2023/08/15 01:38:46;;;;;;;;;3.00;3.00;;;;;24.17;100.00;101074.03;5076243;28;45458;-72
2023/08/15 01:41:15;;;;;;;;;3.00;3.00;;;;;24.12;100.00;101073.34;5075943;28;45317;-72
2023/08/15 01:43:42;;;;;;;;;4.67;3.00;;;;;24.11;100.00;101073.41;5070324;28;45371;-73
2023/08/15 01:46:08;;;;;;;;;4.00;3.00;;;;;24.19;100.00;101084.78;5072737;28;45747;-72
2023/08/15 01:48:38;;;;;;;;;4.00;2.67;;;;;24.21;100.00;101088.28;5057425;28;45368;-71
2023/08/15 01:51:04;;;;;;;;;2.67;2.00;;;;;24.23;100.00;101089.94;5068515;28;45440;-74
2023/08/15 01:53:29;;;;;;;;;4.00;3.00;;;;;24.29;100.00;101097.81;5075138;27;61825;-71
2023/08/15 01:55:54;;;;;;;;;3.00;2.00;;;;;24.24;100.00;101101.66;5075391;28;65143;-74
2023/08/15 01:58:20;;;;;;;;;5.67;3.00;;;;;24.25;100.00;101098.88;5076311;27;45291;-73
2023/08/15 02:00:46;;;;;;;;;3.00;3.00;;;;;24.25;100.00;101106.97;5075444;28;59632;-72
2023/08/15 02:03:11;;;;;;;;;6.00;3.00;;;;;24.26;100.00;101102.47;5078076;27;45535;-72
2023/08/15 02:05:37;;;;;;;;;3.67;3.00;;;;;24.24;100.00;101104.34;5062978;28;45517;-73
2023/08/15 02:08:02;;;;;;;;;6.00;2.00;;;;;24.23;100.00;101107.97;5081090;27;66490;-72
2023/08/15 02:10:27;;;;;;;;;2.00;2.00;;;;;24.19;100.00;101114.47;5076045;27;45291;-72
2023/08/15 02:12:53;;;;;;;;;3.67;3.67;;;;;24.15;100.00;101111.00;5074930;28;62155;-72
2023/08/15 02:15:18;;;;;;;;;4.00;3.00;;;;;24.14;100.00;101111.94;5075456;28;58518;-71
2023/08/15 02:17:44;;;;;;;;;5.00;3.00;;;;;24.17;100.00;101102.81;5075782;28;45535;-73
2023/08/15 02:20:09;;;;;;;;;4.00;2.67;;;;;24.17;100.00;101102.81;5074077;28;66677;-73
2023/08/15 02:22:35;;;;;;;;;6.33;3.00;;;;;24.16;100.00;101101.09;5075509;28;45668;-72
2023/08/15 02:25:00;;;;;;;;;5.00;3.00;;;;;24.09;100.00;101104.97;5072966;28;46452;-71
2023/08/15 02:27:26;;;;;;;;;4.00;2.00;;;;;24.09;100.00;101111.25;5075171;28;70551;-73
2023/08/15 02:29:51;;;;;;;;;4.67;4.00;;;;;24.09;100.00;101113.06;5075423;28;45469;-72
2023/08/15 02:32:18;;;;;;;;;2.00;2.00;;;;;24.10;100.00;101113.00;5074832;28;59330;-73
2023/08/15 02:34:43;;;;;;;;;3.00;3.00;;;;;24.07;100.00;101118.50;5073753;28;46347;-72
2023/08/15 02:37:08;;;;;;;;;4.00;3.00;;;;;24.08;100.00;101124.81;5073821;28;45498;-73
2023/08/15 02:39:34;;;;;;;;;3.00;3.00;;;;;24.09;100.00;101110.38;5068867;28;63372;-72
2023/08/15 02:41:59;;;;;;;;;5.00;3.00;;;;;24.10;100.00;101117.53;5070823;28;65312;-71
2023/08/15 02:44:24;;;;;;;;;3.67;2.00;;;;;24.13;100.00;101114.69;5074971;28;47499;-72
2023/08/15 02:46:50;;;;;;;;;2.33;2.00;;;;;24.10;100.00;101121.09;5074494;28;69739;-71
2023/08/15 02:49:15;;;;;;;;;1.00;1.00;;;;;24.11;100.00;101109.34;5073526;28;46820;-72
2023/08/15 02:51:40;;;;;;;;;5.00;2.00;;;;;24.09;100.00;101102.28;5069012;28;46934;-72
2023/08/15 02:54:06;;;;;;;;;5.67;2.67;;;;;24.07;100.00;101106.84;5071572;28;46523;-72
2023/08/15 02:56:31;;;;;;;;;5.33;4.00;;;;;24.03;100.00;101104.28;5075493;28;45462;-73
2023/08/15 02:58:56;;;;;;;;;4.67;3.00;;;;;23.99;100.00;101108.03;5050948;28;64355;-72
2023/08/15 03:01:23;;;;;;;;;3.67;3.00;;;;;23.92;100.00;101114.63;5076648;28;47102;-73
2023/08/15 03:03:48;;;;;;;;;4.00;4.00;;;;;23.87;100.00;101113.94;5082258;27;46590;-71
2023/08/15 03:06:13;;;;;;;;;3.67;3.00;;;;;23.85;100.00;101113.09;5077525;28;45513;-71
2023/08/15 03:08:39;;;;;;;;;5.00;2.67;;;;;23.84;100.00;101118.56;5077685;28;62983;-73
2023/08/15 03:11:04;;;;;;;;;3.00;3.00;;;;;23.81;100.00;101122.28;5077201;28;62514;-73
2023/08/15 03:13:29;;;;;;;;;5.00;3.33;;;;;23.73;100.00;101127.94;5078026;28;57240;-72
2023/08/15 03:15:56;;;;;;;;;4.00;2.00;;;;;23.64;100.00;101117.50;5082682;27;68392;-72
2023/08/15 03:18:21;;;;;;;;;3.00;3.00;;;;;23.58;100.00;101116.84;5078158;27;45165;-72
2023/08/15 03:21:01;;;;;;;;;7.00;3.00;;;;;23.55;100.00;101111.59;5077618;28;45483;-71
2023/08/15 03:23:27;;;;;;;;;6.33;3.33;;;;;23.49;100.00;101105.50;5085262;27;45259;-72
2023/08/15 03:25:59;;;;;;;;;2.00;1.67;;;;;23.45;100.00;101114.63;5077106;28;70023;-71
2023/08/15 03:28:25;;;;;;;;;6.33;3.00;;;;;23.40;100.00;101110.34;5078717;27;45309;-72
2023/08/15 03:30:51;;;;;;;;;3.67;3.33;;;;;23.37;100.00;101110.44;5078383;28;45520;-72
2023/08/15 03:33:16;;;;;;;;;8.00;3.67;;;;;23.33;100.00;101112.41;5065328;27;47157;-72
2023/08/15 03:35:49;;;;;;;;;5.33;3.00;;;;;23.31;100.00;101130.41;5079013;27;45481;-73
2023/08/15 03:38:16;;;;;;;;;7.33;2.00;;;;;23.29;100.00;101134.13;5064893;28;45367;-72
2023/08/15 03:40:43;;;;;;;;;3.00;3.00;;;;;23.24;100.00;101145.06;5072893;27;45549;-72
2023/08/15 03:43:08;;;;;;;;;4.33;3.00;;;;;23.17;100.00;101146.19;5075044;27;46688;-71
2023/08/15 03:45:33;;;;;;;;;6.67;4.00;;;;;23.20;100.00;101146.09;5076733;27;66952;-72
2023/08/15 03:47:59;;;;;;;;;1.33;1.00;;;;;23.20;100.00;101156.88;5076034;28;64359;-71
2023/08/15 03:50:24;;;;;;;;;4.33;2.67;;;;;23.22;100.00;101160.38;5075552;28;59802;-71
2023/08/15 03:52:49;;;;;;;;;4.00;3.00;;;;;23.24;100.00;101158.53;5077176;28;68304;-73
2023/08/15 03:55:15;;;;;;;;;4.00;3.00;;;;;23.18;100.00;101156.94;5077288;28;51050;-73
2023/08/15 03:57:40;;;;;;;;;3.67;3.67;;;;;23.13;100.00;101156.22;5076718;28;62986;-73
2023/08/15 04:00:06;;;;;;;;;3.00;3.00;;;;;23.11;100.00;101157.19;5082351;27;45169;-72
2023/08/15 04:02:34;;;;;;;;;2.00;2.00;;;;;23.10;100.00;101168.91;5080909;27;47828;-72
2023/08/15 04:04:59;;;;;;;;;5.33;3.33;;;;;23.07;100.00;101166.34;5089408;27;46752;-72
2023/08/15 04:07:24;;;;;;;;;5.00;3.00;;;;;23.03;100.00;101180.84;5061133;28;45964;-72
2023/08/15 04:09:50;;;;;;;;;6.67;3.67;;;;;23.01;100.00;101191.69;5076973;28;45263;-73
2023/08/15 04:12:15;;;;;;;;;3.33;2.00;;;;;22.95;100.00;101194.56;5078392;27;45271;-71
2023/08/15 04:14:40;;;;;;;;;4.00;2.00;;;;;22.94;100.00;101196.38;5083132;27;64865;-72
2023/08/15 04:17:06;;;;;;;;;4.00;2.67;;;;;22.94;100.00;101196.38;5083123;27;65824;-72
2023/08/15 04:19:31;;;;;;;;;6.00;3.00;;;;;22.91;100.00;101196.50;5080491;27;60664;-71
2023/08/15 04:21:57;;;;;;;;;2.00;2.00;;;;;22.83;100.00;101205.75;5082728;27;68978;-72
2023/08/15 04:24:22;;;;;;;;;4.67;4.67;;;;;22.80;100.00;101209.44;5078574;27;66935;-73
2023/08/15 04:26:47;;;;;;;;;4.00;4.00;;;;;22.77;100.00;101217.59;5076014;28;64500;-71
2023/08/15 04:29:12;;;;;;;;;4.00;3.00;;;;;22.77;100.00;101224.78;5060853;28;61920;-72
2023/08/15 04:31:38;;;;;;;;;4.67;3.33;;;;;22.72;100.00;101223.13;5078644;27;70967;-71
2023/08/15 04:34:04;;;;;;;;;5.00;3.67;;;;;22.72;100.00;101227.63;5078558;27;45424;-74
2023/08/15 04:36:30;;;;;;;;;7.00;3.00;;;;;22.69;100.00;101223.25;5076828;27;45449;-73
2023/08/15 04:38:55;;;;;;;;;3.00;3.00;;;;;22.69;100.00;101225.03;5084948;27;62472;-72
2023/08/15 04:41:20;;;;;;;;;2.33;2.33;;;;;22.67;100.00;101210.75;5080119;27;66331;-71
2023/08/15 04:43:46;;;;;;;;;4.00;4.00;;;;;22.67;100.00;101214.31;5073160;27;56842;-71
2023/08/15 04:46:12;;;;;;;;;6.00;3.00;;;;;22.71;100.00;101216.00;5073596;28;45338;-71
2023/08/15 04:48:37;;;;;;;;;3.00;3.00;;;;;22.69;100.00;101219.66;5070460;27;59656;-71
2023/08/15 04:51:02;;;;;;;;;5.00;2.00;;;;;22.69;100.00;101225.03;5076679;28;64709;-73
2023/08/15 04:53:28;;;;;;;;;8.00;4.00;;;;;22.62;100.00;101215.41;5076602;28;45480;-73
2023/08/15 04:55:53;;;;;;;;;7.00;3.00;;;;;22.62;100.00;101220.78;5075827;28;61269;-71
2023/08/15 04:58:18;;;;;;;;;3.00;3.00;;;;;22.61;100.00;101222.59;5076027;28;60772;-73
2023/08/15 05:00:44;;;;;;;;;3.00;3.00;;;;;22.60;100.00;101226.22;5075226;28;46436;-73
2023/08/15 05:03:09;;;;;;;;;2.00;2.00;;;;;22.61;100.00;101228.00;5074468;27;70237;-72
2023/08/15 05:05:34;;;;;;;;;3.00;3.00;;;;;22.61;100.00;101235.19;5079944;27;64684;-73
2023/08/15 05:08:00;;;;;;;;;4.00;4.00;;;;;22.57;100.00;101229.00;5082251;27;45504;-72
2023/08/15 05:10:25;;;;;;;;;3.00;1.67;;;;;22.61;100.00;101238.75;5079122;27;69696;-72
2023/08/15 05:12:50;;;;;;;;;4.67;2.67;;;;;22.62;100.00;101237.81;5082013;27;62531;-72
2023/08/15 05:15:16;;;;;;;;;6.67;4.00;;;;;22.63;100.00;101236.88;5076498;27;45512;-71
2023/08/15 05:17:43;;;;;;;;;7.00;4.00;;;;;22.61;100.00;101240.56;5069563;27;62617;-72
2023/08/15 05:20:09;;;;;;;;;3.67;3.00;;;;;22.60;100.00;101231.63;5076101;27;46511;-73
2023/08/15 05:22:34;;;;;;;;;5.00;3.00;;;;;22.62;100.00;101245.00;5075654;28;45360;-72
2023/08/15 05:25:00;;;;;;;;;3.00;1.33;;;;;22.62;100.00;101239.63;5074661;27;56231;-74
2023/08/15 05:27:25;;;;;;;;;6.00;4.00;;;;;22.68;100.00;101244.81;5076713;28;45465;-72
2023/08/15 05:29:51;;;;;;;;;5.33;3.00;;;;;22.65;100.00;101237.72;5075934;28;45655;-73
2023/08/15 05:32:16;;;;;;;;;7.00;3.67;;;;;;;;5080102;27;45265;-74
2023/08/15 05:34:41;;;;;;;;;5.00;3.00;;;;;22.68;100.00;101248.38;5077886;28;45201;-72
2023/08/15 05:37:06;;;;;;;;;4.00;4.00;;;;;22.70;100.00;101242.97;5075402;28;52613;-73
2023/08/15 05:39:32;;;;;;;;;4.00;4.00;;;;;22.73;100.00;101246.41;5075432;28;68367;-73
2023/08/15 05:41:57;;;;;;;;;5.00;3.33;;;;;22.73;100.00;101246.41;5072961;27;69295;-73
2023/08/15 05:44:23;;;;;;;;;4.33;4.33;;;;;22.76;100.00;101245.47;5073493;28;45422;-74
2023/08/15 05:46:48;;;;;;;;;5.00;3.33;;;;;22.77;100.00;101246.34;5076901;28;47375;-72
2023/08/15 05:49:13;;;;;;;;;3.33;2.33;;;;;22.74;100.00;101250.00;5066829;28;70053;-72
2023/08/15 05:51:39;;;;;;;;;3.00;3.00;;;;;22.77;100.00;101260.69;5075680;28;52134;-71
2023/08/15 05:54:04;;;;;;;;;4.67;3.67;;;;;22.75;100.00;101262.53;5071866;28;45337;-73
2023/08/15 05:56:29;;;;;;;;;8.00;3.00;;;;;22.76;100.00;101264.31;5074171;27;45434;-71
2023/08/15 05:58:55;;;;;;;;;3.00;3.00;;;;;22.79;100.00;101264.19;5074091;28;68296;-73
2023/08/15 06:01:21;;;;;;;;;4.00;3.00;;;;;22.80;100.00;101278.53;5074982;28;67128;-74
2023/08/15 06:03:46;;;;;;;;;5.00;3.67;;;;;22.75;100.00;101276.00;5076249;27;45445;-72
2023/08/15 06:06:12;;;;;;;;;4.67;3.67;;;;;22.67;100.00;101278.06;5058760;27;45286;-72
2023/08/15 06:08:37;;;;;;;;;7.33;3.00;;;;;22.68;100.00;101280.69;5079480;27;62293;-71
2023/08/15 06:11:02;;;;;;;;;3.00;3.00;;;;;22.65;100.00;101280.81;5074793;27;57578;-71
2023/08/15 06:13:29;;;;;;;;;3.00;3.00;;;;;22.68;100.00;101290.56;5075489;28;45871;-73
2023/08/15 06:15:54;;;;;;;;;5.00;4.00;;;;;22.66;100.00;101297.84;5075901;27;45403;-72
2023/08/15 06:18:19;;;;;;;;;4.33;3.00;;;;;22.62;100.00;101299.72;5074605;28;69096;-71
2023/08/15 06:20:45;;;;;;;;;4.00;2.00;;;;;22.61;100.00;101313.25;5075402;28;45568;-71
2023/08/15 06:23:10;;;;;;;;;3.33;3.33;;;;;22.58;100.00;101311.50;5063537;28;45510;-72
2023/08/15 06:25:39;;;;;;;;;3.67;2.00;;;;;22.55;100.00;101314.31;5070956;28;47169;-72
2023/08/15 06:28:04;;;;;;;;;6.00;4.00;;;;;22.54;100.00;101317.06;5073115;28;45834;-72
2023/08/15 06:30:30;;;;;;;;;3.67;2.33;;;;;22.55;100.00;101321.50;5072778;28;45275;-71
2023/08/15 06:32:55;;;;;;;;;3.00;3.00;;;;;22.62;100.00;101317.69;5064850;28;45472;-71
2023/08/15 06:35:27;;;;;;;;;4.67;3.00;;;;;22.65;100.00;101326.56;5065037;28;61504;-72
2023/08/15 06:37:52;;;;;;;;;4.33;3.00;;;;;;;;5077877;28;47186;-71
2023/08/15 06:40:17;;;;;;;;;8.00;4.00;;;;;22.69;100.00;101332.72;5077986;28;45461;-72
2023/08/15 06:42:43;;;;;;;;;4.00;2.67;;;;;22.68;100.00;101337.22;5075152;28;58566;-72
2023/08/15 06:45:13;;;;;;;;;5.67;4.00;;;;;22.66;100.00;101332.81;5071137;28;59532;-73
2023/08/15 06:47:39;;;;;;;;;4.00;3.00;;;;;22.65;100.00;101336.47;5077946;28;46485;-72
2023/08/15 06:50:08;;;;;;;;;7.00;3.00;;;;;22.70;100.00;101343.47;5077601;28;45539;-71
2023/08/15 06:52:33;;;;;;;;;4.33;4.33;;;;;22.70;100.00;101345.28;5070153;28;45491;-72
2023/08/15 06:54:59;;;;;;;;;6.67;4.33;;;;;22.74;100.00;101355.00;5076029;28;45320;-72
2023/08/15 06:57:24;;;;;;;;;5.67;4.33;;;;;22.71;100.00;101347.91;5077204;28;46657;-71
2023/08/15 06:59:49;;;;;;;;;2.00;2.00;;;;;22.74;100.00;101355.91;5075567;28;70519;-72
2023/08/15 07:02:15;;;;;;;;;4.33;3.67;;;;;22.77;100.00;101365.69;5077259;28;45382;-72
2023/08/15 07:04:40;;;;;;;;;8.00;3.33;;;;;22.78;100.00;101370.13;5077154;27;59906;-71
2023/08/15 07:07:08;;;;;;;;;6.00;3.00;;;;;22.76;100.00;101372.00;5075825;27;45548;-72
2023/08/15 07:09:35;;;;;;;;;6.67;4.00;;;;;22.78;100.00;101374.63;5073398;27;45518;-72
2023/08/15 07:12:01;;;;;;;;;2.00;2.00;;;;;22.82;100.00;101369.13;5083185;27;45383;-72
2023/08/15 07:14:26;;;;;;;;;3.67;3.00;;;;;22.86;100.00;101376.16;5076398;27;45617;-71
2023/08/15 07:16:52;;;;;;;;;5.00;4.00;;;;;22.83;100.00;101364.59;5076512;28;71538;-71
2023/08/15 07:19:17;;;;;;;;;4.00;3.67;;;;;22.84;100.00;101364.53;5075793;28;45432;-71
2023/08/15 07:21:43;;;;;;;;;2.67;2.00;;;;;22.91;100.00;101363.47;5075082;28;63535;-72
2023/08/15 07:24:08;;;;;;;;;3.00;3.00;;;;;23.03;100.00;101367.59;5074273;28;45509;-71
2023/08/15 07:26:34;;;;;;;;;5.67;2.67;;;;;23.06;100.00;101366.59;5079183;27;53267;-73
2023/08/15 07:28:59;;;;;;;;;4.00;3.33;;;;;23.08;100.00;101378.22;5074518;28;67969;-72
2023/08/15 07:31:24;;;;;;;;;4.67;3.00;;;;;23.08;100.00;101376.41;5067360;28;45801;-71
2023/08/15 07:33:50;;;;;;;;;4.33;4.33;;;;;23.09;100.00;101379.97;5074569;28;45517;-71
2023/08/15 07:36:15;;;;;;;;;3.33;3.00;;;;;23.12;100.00;101383.47;5073931;28;66735;-71
2023/08/15 07:38:40;;;;;;;;;3.67;3.33;;;;;23.17;100.00;101384.19;5076325;28;64961;-72
2023/08/15 07:43:31;;;;;;;;;4.00;3.00;;;;;23.24;100.00;101392.94;5169240;22;63856;-74
2023/08/15 07:45:56;;;;;;;;;5.67;3.00;;;;;23.30;100.00;101381.09;5073925;28;45942;-71
2023/08/15 07:48:22;;;;;;;;;4.00;3.33;;;;;23.34;100.00;101380.06;5066347;28;49151;-71
2023/08/15 07:50:47;;;;;;;;;5.67;3.67;;;;;23.43;100.00;101388.69;5075933;28;45299;-72
2023/08/15 07:53:12;;;;;;;;;5.00;4.00;;;;;23.53;100.00;101387.44;5077670;28;61767;-72
2023/08/15 07:55:38;;;;;;;;;6.33;3.00;;;;;23.59;100.00;101390.88;5077452;27;45776;-71
2023/08/15 07:58:03;;;;;;;;;4.67;3.00;;;;;23.63;100.00;101389.88;5077669;28;45427;-72
2023/08/15 08:00:29;;;;;;;;;6.00;4.00;;;;;23.65;100.00;101379.91;5077605;28;45323;-72
2023/08/15 08:02:54;;;;;;;;;3.33;3.33;;;;;23.69;100.00;101376.19;5080126;27;62915;-71
2023/08/15 08:05:20;;;;;;;;;3.67;2.00;;;;;23.79;100.00;101381.19;5081980;27;54768;-73
2023/08/15 08:07:46;;;;;;;;;3.00;3.00;;;;;23.85;100.00;101376.53;5077396;27;45551;-72
2023/08/15 08:10:11;;;;;;;;;6.67;3.00;;;;;23.86;100.00;101372.88;5083645;27;45385;-70
2023/08/15 08:12:37;;;;;;;;;7.00;4.67;;;;;23.90;100.00;101366.47;5077688;28;45471;-69
2023/08/15 08:15:03;;;;;;;;;6.00;3.00;;;;;23.93;100.00;101366.38;5076522;28;45812;-70
2023/08/15 08:17:29;;;;;;;;;5.00;2.00;;;;;23.96;100.00;101374.31;5074360;28;45584;-70
2023/08/15 08:19:54;;;;;;;;;4.00;2.00;;;;;24.01;100.00;101370.53;5058129;28;47919;-70
2023/08/15 08:22:19;;;;;;;;;4.00;2.00;;;;;24.14;100.00;101368.28;5075892;27;62711;-72
2023/08/15 08:24:45;;;;;;;;;6.00;3.00;;;;;24.20;100.00;101365.34;5058230;27;69439;-70
2023/08/15 08:27:10;;;;;;;;;5.00;2.33;;;;;24.28;100.00;101356.94;5075124;27;45534;-70
2023/08/15 08:29:36;;;;;;;;;3.00;2.00;;;;;24.36;100.00;101354.88;5072696;27;45455;-70
2023/08/15 08:32:01;;;;;;;;;3.00;3.00;;;;;24.37;100.00;101353.94;5073555;27;61667;-71
2023/08/15 08:34:27;;;;;;;;;3.00;3.00;;;;;24.44;100.00;101351.88;5070142;27;70513;-71
2023/08/15 08:36:52;;;;;;;;;6.33;2.67;;;;;24.46;100.00;101341.94;5077907;27;45440;-70
2023/08/15 08:39:18;;;;;;;;;4.00;3.00;;;;;24.51;100.00;101345.34;5073989;27;60621;-70
2023/08/15 08:41:43;;;;;;;;;3.00;2.33;;;;;24.61;100.00;101352.13;5072584;27;45773;-71
2023/08/15 08:44:10;;;;;;;;;4.00;2.33;;;;;24.76;100.00;101343.41;5071627;27;67087;-71
2023/08/15 08:46:36;;;;;;;;;4.00;3.00;;;;;24.90;100.00;101341.97;5073034;27;45497;-71
2023/08/15 08:49:03;;;;;;;;;6.67;3.00;;;;;24.99;100.00;101326.28;5073943;27;59966;-70
2023/08/15 08:51:31;;;;;;;;;2.67;2.00;;;;;25.10;100.00;101338.50;5073056;27;45499;-71
2023/08/15 08:53:57;;;;;;;;;3.00;3.00;;;;;25.17;100.00;101335.47;5068795;27;45488;-70
2023/08/15 08:56:22;;;;;;;;;3.00;3.00;;;;;25.27;100.00;101335.97;5069260;27;63235;-70
2023/08/15 08:59:04;;;;;;;;;8.00;3.67;;;;;25.45;100.00;101354.09;5067146;27;45505;-70
2023/08/15 09:01:31;;;;;;;;;4.00;2.00;;;;;25.56;100.00;101348.25;5067871;27;46954;-70
2023/08/15 09:03:56;;;;;;;;;4.33;3.00;;;;;25.66;100.00;101335.19;5073275;27;45945;-71
2023/08/15 09:06:23;;;;;;;;;3.33;2.33;;;;;25.74;100.00;101338.47;5070373;27;45474;-70
2023/08/15 09:08:48;;;;;;;;;5.00;3.00;;;;;25.82;100.00;101348.00;5055522;27;45605;-70
2023/08/15 09:11:13;;;;;;;;;6.67;3.33;;;;;25.95;100.00;101348.38;5070349;27;45590;-70
2023/08/15 09:13:46;;;;;;;;;3.33;2.00;;;;;26.08;100.00;101345.97;5074715;27;67332;-71
2023/08/15 09:16:11;;;;;;;;;5.67;3.00;;;;;26.16;100.00;101343.81;5074613;27;45483;-70
2023/08/15 09:18:37;;;;;;;;;4.00;2.00;;;;;26.26;100.00;101352.34;5071015;27;54071;-70
2023/08/15 09:21:05;;;;;;;;;1.00;1.00;;;;;26.32;100.00;101349.41;5071067;27;58491;-70
2023/08/15 09:23:31;;;;;;;;;4.00;2.67;;;;;26.29;100.00;101350.41;5067935;27;45539;-71
2023/08/15 09:25:56;;;;;;;;;3.00;3.00;;;;;26.25;100.00;101345.19;5073519;27;45379;-70
2023/08/15 09:28:22;;;;;;;;;2.00;2.00;;;;;26.22;100.00;101350.78;5076778;27;61465;-71
2023/08/15 09:30:53;;;;;;;;;4.00;2.67;;;;;26.11;100.00;101351.25;5074052;27;45384;-70
2023/08/15 09:33:19;;;;;;;;;4.00;2.00;;;;;26.08;100.00;101357.66;5069394;27;45713;-71
2023/08/15 09:35:45;;;;;;;;;3.00;3.00;;;;;26.06;100.00;101353.28;5074663;27;45516;-70
2023/08/15 09:38:11;;;;;;;;;5.67;4.33;;;;;26.07;100.00;101346.94;5069288;27;45560;-71
2023/08/15 09:40:37;;;;;;;;;3.00;3.00;;;;;26.12;100.00;101347.59;5073912;27;45950;-70
2023/08/15 09:43:03;;;;;;;;;2.00;2.00;;;;;26.17;100.00;101355.50;5070530;27;45709;-70
2023/08/15 09:45:28;;;;;;;;;4.33;4.00;;;;;26.26;100.00;101355.06;5067845;27;45473;-71
2023/08/15 09:47:54;;;;;;;;;8.00;4.00;;;;;26.34;100.00;101352.91;5048930;28;45502;-70
2023/08/15 09:50:20;;;;;;;;;5.00;4.00;;;;;26.41;100.00;101353.47;5048788;27;55026;-71
2023/08/15 09:52:46;;;;;;;;;4.33;3.00;;;;;26.40;100.00;101347.19;5073207;27;46754;-70
2023/08/15 09:55:15;;;;;;;;;2.00;2.00;;;;;26.39;100.00;101346.31;5076827;27;45451;-71
2023/08/15 09:57:42;;;;;;;;;5.67;3.00;;;;;26.48;100.00;101357.72;5068154;27;45494;-70
2023/08/15 10:00:12;;;;;;;;;2.00;2.00;;;;;26.59;100.00;101340.00;5071755;27;46011;-71
2023/08/15 10:02:55;;;;;;;;;2.00;2.00;;;;;26.81;100.00;101330.84;5068495;27;47384;-71
2023/08/15 10:05:21;;;;;;;;;2.33;2.00;;;;;27.00;100.00;101330.78;5070616;27;45581;-70
2023/08/15 10:07:48;;;;;;;;;2.67;2.67;;;;;27.08;100.00;101336.75;5072663;27;45685;-71
2023/08/15 10:10:14;;;;;;;;;2.00;2.00;;;;;27.18;100.00;101340.78;5056142;27;45686;-72
2023/08/15 10:12:40;;;;;;;;;3.00;3.00;;;;;27.32;100.00;101345.47;5057232;28;46545;-72
2023/08/15 10:15:07;;;;;;;;;3.00;3.00;;;;;27.42;100.00;101339.50;5059538;28;45397;-73
2023/08/15 10:17:33;;;;;;;;;5.00;3.00;;;;;27.55;100.00;101344.31;5060365;28;45402;-70
2023/08/15 10:20:10;;;;;;;;;3.00;3.00;;;;;27.66;100.00;101345.50;5055809;28;52973;-70
2023/08/15 10:22:36;;;;;;;;;2.67;2.67;;;;;27.76;100.00;101339.66;5075960;28;45923;-70
2023/08/15 10:25:40;;;;;;;;;3.00;3.00;;;;;27.87;100.00;101339.97;5077844;28;45397;-71
2023/08/15 10:28:12;;;;;;;;;3.00;3.00;;;;;27.88;100.00;101341.69;5007520;28;45523;-71
2023/08/15 10:30:47;;;;;;;;;2.00;2.00;;;;;27.76;100.00;101337.81;5066896;28;45359;-71
2023/08/15 10:33:15;;;;;;;;;4.00;3.00;;;;;27.69;100.00;101347.16;5077966;28;47552;-70
2023/08/15 10:35:55;;;;;;;;;4.67;3.00;;;;;27.61;100.00;101353.00;5079255;28;45364;-71
2023/08/15 10:38:30;;;;;;;;;5.33;3.33;;;;;27.58;100.00;101352.28;5077398;27;45448;-70
2023/08/15 10:41:05;;;;;;;;;2.33;2.33;;;;;27.48;100.00;101351.88;5088584;27;45693;-70
2023/08/15 10:43:35;;;;;;;;;2.67;2.67;;;;;27.52;100.00;101344.47;5074439;27;46479;-71
2023/08/15 10:46:02;;;;;;;;;4.33;3.00;;;;;27.67;100.00;101349.09;5081451;27;45425;-70
2023/08/15 10:48:36;;;;;;;;;3.00;3.00;;;;;27.86;100.00;101338.22;5086453;27;45369;-71
2023/08/15 10:51:01;;;;;;;;;3.33;2.00;;;;;28.01;100.00;101348.22;5078960;27;45348;-70
2023/08/15 10:53:27;;;;;;;;;5.00;3.00;;;;;28.10;100.00;101353.16;5078105;27;51657;-71
2023/08/15 10:55:53;;;;;;;;;3.00;3.00;;;;;28.13;100.00;101354.84;5078178;28;65504;-71
2023/08/15 10:58:21;;;;;;;;;1.00;1.00;;;;;28.02;100.00;101354.53;5067600;27;57900;-71
2023/08/15 11:00:46;;;;;;;;;3.00;3.00;;;;;27.84;100.00;101359.97;5084475;27;45423;-72
2023/08/15 11:03:12;;;;;;;;;1.00;1.00;;;;;27.74;100.00;101357.81;5078061;28;46364;-72
2023/08/15 11:05:37;;;;;;;;;2.00;2.00;;;;;27.74;100.00;101356.00;5043484;28;48917;-70
2023/08/15 11:08:09;;;;;;;;;2.33;2.00;;;;;27.81;100.00;101351.13;5076974;28;45251;-70
2023/08/15 11:10:35;;;;;;;;;2.00;2.00;;;;;27.78;100.00;101351.28;5078189;28;45340;-71
2023/08/15 11:13:00;;;;;;;;;2.00;2.00;;;;;27.71;100.00;101348.03;5076748;28;67977;-71
2023/08/15 11:15:26;;;;;;;;;4.33;2.67;;;;;27.68;100.00;101351.72;5079390;27;60949;-70
2023/08/15 11:17:51;;;;;;;;;2.67;2.67;;;;;27.76;100.00;101350.50;5079600;27;45310;-72